Terminal Aerodrome Forecast
Issued by NWS Jackson, MS

Current Version | Previous Version | Text Only | Print | Product List | Glossary On
Versions: 1 2 3 4 5 6 7 8 9 10 11 12 13 14 15 16 17 18 19
000
FTUS44 KMEG 260427 AAA
TAFTUP
TAF AMD
KTUP 260427Z 2604/2624 34009G16KT P6SM SCT015 BKN025
      TEMPO 2607/2611 OVC015
     FM261600 35010G15KT P6SM SCT025
     FM262100 30006KT P6SM SKC=

USA.gov is the U.S. government's official web portal to all federal, state and local government web resources and services.